Time;durP1;ratioP1;P1;durP2;ratioP2;P2;SDS_P1;SDS_P2;PMS_P1;PMS_P2;Temp;Humidity;BMP_temperature;BMP_pressure;BME280_temperature;BME280_humidity;BME280_pressure;Samples;Min_cycle;Max_cycle;Signal;HPM_P1;HPM_P2
2021/10/15 00:01:34;;;;;;;15.00;7.60;;;;;;;2.46;78.34;99472.44;112246;1192;73694;-24
2021/10/15 00:04:03;;;;;;;9.80;6.90;;;;;;;2.19;79.34;99471.79;112257;1192;60816;-26
2021/10/15 00:06:31;;;;;;;11.70;6.80;;;;;;;1.97;80.39;99474.40;112250;1193;60803;-26
2021/10/15 00:09:00;;;;;;;6.50;4.10;;;;;;;1.74;80.84;99473.04;112303;1192;73521;-25
2021/10/15 00:11:28;;;;;;;15.00;6.50;;;;;;;1.93;80.96;99473.70;112153;1193;75749;-25
2021/10/15 00:13:58;;;;;;;11.20;7.10;;;;;;;2.44;79.12;99470.48;112158;1192;74077;-26
2021/10/15 00:16:26;;;;;;;12.30;7.90;;;;;;;2.52;78.46;99466.71;112271;1192;61490;-25
2021/10/15 00:18:55;;;;;;;10.40;5.70;;;;;;;2.29;78.52;99464.55;112159;1192;60808;-26
2021/10/15 00:21:23;;;;;;;13.70;6.40;;;;;;;1.99;79.02;99459.25;112275;1193;74245;-23
2021/10/15 00:23:52;;;;;;;6.60;3.90;;;;;;;1.69;80.48;99459.36;112288;1180;75495;-26
2021/10/15 00:26:20;;;;;;;8.50;6.10;;;;;;;1.96;80.64;99457.83;112226;1193;73016;-25
2021/10/15 00:28:49;;;;;;;15.60;7.20;;;;;;;2.34;79.27;99459.23;112122;1193;61791;-25
2021/10/15 00:31:17;;;;;;;15.20;7.50;;;;;;;2.24;79.58;99459.27;112133;1193;61584;-26
2021/10/15 00:33:46;;;;;;;10.60;6.30;;;;;;;2.03;80.08;99456.52;112249;1193;74480;-24
2021/10/15 00:36:15;;;;;;;11.80;6.80;;;;;;;1.75;81.42;99457.40;112213;1193;75915;-26
2021/10/15 00:38:43;;;;;;;10.20;4.70;;;;;;;1.65;81.89;99456.41;112237;1192;73192;-25
2021/10/15 00:41:11;;;;;;;9.70;5.90;;;;;;;2.11;81.01;99455.98;112232;1193;60829;-26
2021/10/15 00:44:08;;;;;;;11.70;6.10;;;;;;;2.39;79.72;99457.12;112309;1193;61279;-23
2021/10/15 00:46:38;;;;;;;8.80;5.40;;;;;;;2.27;79.51;99452.98;112085;1193;73563;-25
2021/10/15 00:49:08;;;;;;;9.40;6.00;;;;;;;2.03;80.22;99449.81;112018;1195;73070;-26
2021/10/15 00:51:37;;;;;;;9.20;6.00;;;;;;;1.76;80.98;99446.75;112075;1193;71241;-25
2021/10/15 00:54:05;;;;;;;10.50;5.80;;;;;;;1.79;81.14;99444.09;112262;1192;62591;-26
2021/10/15 00:56:34;;;;;;;9.50;5.90;;;;;;;2.23;79.74;99438.77;112326;1193;60789;-26
2021/10/15 00:59:02;;;;;;;10.40;6.10;;;;;;;2.36;78.83;99435.30;112251;1192;74431;-25
2021/10/15 01:01:31;;;;;;;8.80;5.80;;;;;;;2.18;79.15;99431.94;112319;1185;75472;-24
2021/10/15 01:04:00;;;;;;;10.20;5.10;;;;;;;1.89;79.99;99426.07;112297;1192;74076;-26
2021/10/15 01:06:31;;;;;;;12.60;7.90;;;;;;;1.62;80.39;99428.66;112109;1193;60810;-25
2021/10/15 01:08:59;;;;;;;6.70;4.30;;;;;;;1.38;81.44;99426.98;112114;1193;60825;-26
2021/10/15 01:11:27;;;;;;;11.20;5.90;;;;;;;1.75;81.22;99427.45;112231;1193;74488;-24
2021/10/15 01:13:56;;;;;;;11.90;6.80;;;;;;;2.15;79.50;99427.94;112276;1192;74408;-24
2021/10/15 01:16:26;;;;;;;9.90;5.90;;;;;;;2.22;78.91;99429.36;112076;1193;72241;-26
2021/10/15 01:18:56;;;;;;;9.40;6.00;;;;;;;2.01;78.92;99432.09;112028;1193;60868;-24
2021/10/15 01:21:26;;;;;;;13.60;7.40;;;;;;;1.73;79.66;99432.00;112091;1193;60862;-26
2021/10/15 01:23:55;;;;;;;13.00;8.30;;;;;;;1.50;79.98;99433.88;112161;1193;73856;-25
2021/10/15 01:26:23;;;;;;;6.80;4.00;;;;;;;1.25;80.84;99429.50;112137;1193;74668;-25
2021/10/15 01:28:54;;;;;;;11.90;6.50;;;;;;;1.71;80.59;99424.67;112164;1193;72268;-26
2021/10/15 01:31:23;;;;;;;7.30;4.80;;;;;;;2.26;78.66;99427.16;112185;1193;61814;-23
2021/10/15 01:33:56;;;;;;;13.80;7.40;;;;;;;2.27;78.64;99423.33;112274;1192;61283;-26
2021/10/15 01:36:26;;;;;;;9.20;5.50;;;;;;;2.09;78.99;99418.23;112114;1193;73549;-20
2021/10/15 01:38:54;;;;;;;9.20;5.60;;;;;;;1.86;79.48;99411.77;112123;1193;75847;-24
2021/10/15 01:41:22;;;;;;;9.90;5.70;;;;;;;1.57;79.50;99409.99;112220;1193;73332;-26
2021/10/15 01:43:51;;;;;;;7.20;4.80;;;;;;;1.42;80.44;99407.84;112253;1192;61345;-24
2021/10/15 01:46:19;;;;;;;13.80;7.70;;;;;;;1.90;79.56;99409.38;112331;1192;61026;-25
2021/10/15 01:48:48;;;;;;;9.80;5.90;;;;;;;2.16;78.15;99409.41;112260;1193;73361;-25
2021/10/15 01:51:17;;;;;;;9.70;5.60;;;;;;;2.05;78.55;99409.17;112266;1192;74651;-25
2021/10/15 01:53:46;;;;;;;8.60;5.40;;;;;;;1.82;78.96;99408.51;112117;1193;74368;-26
2021/10/15 01:56:14;;;;;;;8.20;4.40;;;;;;;1.55;79.09;99410.60;112263;1192;60817;-26
2021/10/15 01:58:44;;;;;;;10.20;5.40;;;;;;;1.26;79.38;99410.99;112253;1193;62056;-26
2021/10/15 02:01:12;;;;;;;8.40;5.70;;;;;;;1.60;79.69;99408.53;112272;1193;74391;-26
2021/10/15 02:03:41;;;;;;;11.80;6.20;;;;;;;2.00;78.53;99403.17;112255;1193;75638;-25
2021/10/15 02:06:11;;;;;;;9.30;5.60;;;;;;;1.95;78.77;99402.20;112268;1192;72394;-25
2021/10/15 02:08:42;;;;;;;9.10;4.60;;;;;;;1.75;79.07;99397.70;112255;1193;61270;-25
2021/10/15 02:11:10;;;;;;;7.00;4.10;;;;;;;1.48;79.69;99398.86;112309;1192;62019;-25
2021/10/15 02:13:39;;;;;;;11.20;6.00;;;;;;;1.25;80.60;99395.98;112252;1193;73137;-24
2021/10/15 02:16:07;;;;;;;12.30;7.50;;;;;;;1.59;81.11;99400.84;112139;1193;74504;-23
2021/10/15 02:18:36;;;;;;;12.00;8.10;;;;;;;2.04;79.44;99397.73;112261;1192;74153;-24
2021/10/15 02:21:05;;;;;;;10.60;6.40;;;;;;;2.03;79.00;99394.69;112250;1193;61692;-24
2021/10/15 02:23:33;;;;;;;10.50;6.30;;;;;;;1.81;79.72;99391.27;112204;1193;60855;-26
2021/10/15 02:26:02;;;;;;;9.60;6.60;;;;;;;1.63;79.61;99385.30;112223;1193;73608;-26
2021/10/15 02:28:30;;;;;;;15.10;7.40;;;;;;;1.39;80.09;99383.83;112158;1193;74616;-27
2021/10/15 02:30:59;;;;;;;5.20;3.90;;;;;;;1.18;80.95;99383.58;112135;1193;73653;-24
2021/10/15 02:33:27;;;;;;;12.50;7.40;;;;;;;1.65;80.51;99389.65;112104;1193;60841;-23
2021/10/15 02:35:58;;;;;;;10.20;5.60;;;;;;;2.26;78.68;99391.69;112282;1193;61587;-25
2021/10/15 02:38:26;;;;;;;8.80;5.00;;;;;;;2.30;77.93;99386.02;112253;1192;74548;-24
2021/10/15 02:40:55;;;;;;;10.30;6.10;;;;;;;2.11;77.95;99383.59;112302;1192;74602;-25
2021/10/15 02:43:23;;;;;;;9.80;6.30;;;;;;;1.80;78.73;99383.25;112267;1192;74010;-25
2021/10/15 02:45:51;;;;;;;11.00;7.40;;;;;;;1.48;80.10;99382.44;112241;1192;60773;-24
2021/10/15 02:48:19;;;;;;;7.50;4.10;;;;;;;1.25;80.66;99385.20;112257;1192;61439;-26
2021/10/15 02:50:50;;;;;;;10.40;7.00;;;;;;;1.65;80.78;99384.36;112217;1192;73580;-25
2021/10/15 02:53:18;;;;;;;11.80;6.70;;;;;;;2.26;78.69;99388.79;112194;1192;75518;-23
2021/10/15 02:55:46;;;;;;;10.90;6.70;;;;;;;2.31;78.11;99386.67;112237;1193;73828;-24
2021/10/15 02:58:15;;;;;;;7.30;5.70;;;;;;;2.13;78.14;99385.70;112242;1186;61488;-23
2021/10/15 03:00:43;;;;;;;8.90;6.50;;;;;;;1.87;78.84;99385.90;112287;1192;60839;-25
2021/10/15 03:03:12;;;;;;;9.70;6.50;;;;;;;1.56;79.81;99384.19;112135;1193;74475;-24
2021/10/15 03:05:40;;;;;;;5.80;3.60;;;;;;;1.35;80.26;99381.59;112152;1193;74781;-24
2021/10/15 03:08:09;;;;;;;13.10;7.40;;;;;;;1.70;80.78;99383.46;112281;1192;73966;-24
2021/10/15 03:10:38;;;;;;;8.80;5.70;;;;;;;2.23;78.53;99387.52;112262;1193;61097;-24
2021/10/15 03:13:18;;;;;;;11.10;6.40;;;;;;;2.23;78.12;99384.45;112280;1193;60952;-25
2021/10/15 03:16:06;;;;;;;8.00;6.00;;;;;;;1.93;78.89;99385.67;112196;1192;74627;-25
2021/10/15 03:18:35;;;;;;;8.90;5.70;;;;;;;1.69;79.28;99387.81;112212;1193;74677;-24
2021/10/15 03:21:04;;;;;;;11.20;7.10;;;;;;;1.40;80.24;99389.77;112243;1192;73092;-24
2021/10/15 03:23:33;;;;;;;5.70;3.90;;;;;;;1.20;81.11;99386.42;112251;1193;61370;-26
2021/10/15 03:26:01;;;;;;;11.80;6.20;;;;;;;1.65;80.83;99388.64;112267;1192;60803;-26
2021/10/15 03:28:30;;;;;;;11.60;6.60;;;;;;;2.22;78.75;99386.52;112292;1193;74926;-25
2021/10/15 03:30:58;;;;;;;9.00;5.90;;;;;;;2.26;78.04;99384.65;112227;1192;74964;-25
2021/10/15 03:33:26;;;;;;;10.10;6.00;;;;;;;2.07;78.53;99383.22;112205;1192;73217;-24
2021/10/15 03:35:55;;;;;;;9.70;6.40;;;;;;;1.80;79.04;99380.19;112265;1192;60816;-25
2021/10/15 03:38:23;;;;;;;10.10;5.90;;;;;;;1.45;80.28;99375.88;112195;1192;61512;-24
2021/10/15 03:40:52;;;;;;;9.20;5.10;;;;;;;1.27;80.80;99377.45;112251;1193;75086;-24
2021/10/15 03:43:20;;;;;;;9.80;5.60;;;;;;;1.67;80.53;99380.67;112274;1192;75526;-25
2021/10/15 03:45:49;;;;;;;10.80;6.60;;;;;;;2.10;78.98;99381.40;112160;1192;73203;-26
2021/10/15 03:48:18;;;;;;;12.10;6.70;;;;;;;2.07;78.68;99381.52;112257;1192;61525;-23
2021/10/15 03:50:46;;;;;;;10.10;5.60;;;;;;;1.84;79.06;99382.42;112251;1193;61641;-25
2021/10/15 03:53:14;;;;;;;13.20;7.10;;;;;;;1.48;80.54;99385.19;112255;1192;74698;-25
2021/10/15 03:55:42;;;;;;;12.30;6.90;;;;;;;1.23;81.36;99385.10;112009;1193;74732;-25
2021/10/15 03:58:11;;;;;;;11.50;6.40;;;;;;;1.23;82.17;99385.11;112243;1193;74162;-24
2021/10/15 04:00:40;;;;;;;11.10;5.30;;;;;;;1.83;80.16;99381.41;112114;1193;60842;-25
2021/10/15 04:03:09;;;;;;;10.20;5.70;;;;;;;2.06;79.05;99378.47;112253;1193;61356;-24
2021/10/15 04:05:38;;;;;;;12.10;6.50;;;;;;;1.99;78.89;99372.71;112301;1192;74205;-25
2021/10/15 04:08:06;;;;;;;11.50;6.20;;;;;;;1.78;79.58;99372.04;112251;1192;76164;-26
2021/10/15 04:10:34;;;;;;;8.70;4.00;;;;;;;1.54;80.21;99375.38;112218;1192;71687;-24
2021/10/15 04:13:03;;;;;;;10.10;5.20;;;;;;;1.42;81.27;99374.31;112229;1192;61243;-24
2021/10/15 04:15:34;;;;;;;11.70;7.50;;;;;;;1.87;80.05;99377.33;112249;1193;61388;-22
2021/10/15 04:18:02;;;;;;;12.40;6.50;;;;;;;2.07;78.95;99379.45;112266;1192;75131;-23
2021/10/15 04:20:31;;;;;;;15.00;8.50;;;;;;;1.95;79.10;99379.92;112067;1185;75692;-22
2021/10/15 04:23:00;;;;;;;13.60;6.60;;;;;;;1.70;80.02;99381.60;112053;1195;73661;-22
2021/10/15 04:25:29;;;;;;;9.10;5.50;;;;;;;1.42;80.93;99378.90;112096;1192;60918;-22
2021/10/15 04:27:57;;;;;;;7.30;4.40;;;;;;;1.59;80.89;99382.21;112153;1192;60803;-22
2021/10/15 04:30:26;;;;;;;9.30;6.10;;;;;;;2.01;79.36;99381.91;112216;1192;74166;-24
2021/10/15 04:32:54;;;;;;;11.90;7.40;;;;;;;2.05;79.07;99382.26;112199;1193;74893;-22
2021/10/15 04:35:24;;;;;;;12.70;8.00;;;;;;;1.97;78.82;99382.95;112250;1193;74271;-23
2021/10/15 04:37:52;;;;;;;13.40;7.10;;;;;;;1.71;79.71;99382.25;112264;1192;60802;-22
2021/10/15 04:40:21;;;;;;;7.60;5.30;;;;;;;1.50;80.89;99381.02;112268;1192;60789;-23
2021/10/15 04:42:50;;;;;;;14.20;7.70;;;;;;;1.81;80.13;99385.77;112174;1192;74337;-22
2021/10/15 04:45:18;;;;;;;13.20;7.80;;;;;;;2.00;79.19;99392.42;112208;1192;75511;-23
2021/10/15 04:47:46;;;;;;;14.10;9.00;;;;;;;1.91;79.36;99389.16;112211;1192;73161;-23
2021/10/15 04:50:14;;;;;;;10.90;6.70;;;;;;;1.71;79.84;99389.27;112400;1190;60824;-23
2021/10/15 04:52:43;;;;;;;10.70;5.00;;;;;;;1.43;81.22;99385.05;112466;1190;62338;-22
2021/10/15 04:55:11;;;;;;;15.10;7.90;;;;;;;1.68;80.56;99385.60;112517;1190;75245;-22
2021/10/15 04:57:40;;;;;;;11.10;6.60;;;;;;;2.13;78.85;99391.19;112481;1190;75667;-23
2021/10/15 05:00:09;;;;;;;10.50;7.10;;;;;;;2.20;78.38;99391.59;112516;1190;73004;-23
2021/10/15 05:02:39;;;;;;;14.20;8.00;;;;;;;2.00;79.12;99390.33;112431;1192;60802;-22
2021/10/15 05:05:08;;;;;;;10.20;5.50;;;;;;;1.79;80.01;99387.05;112241;1190;60805;-22
2021/10/15 05:07:38;;;;;;;12.50;6.30;;;;;;;1.58;80.80;99390.11;112269;1177;74901;-22
2021/10/15 05:10:07;;;;;;;15.10;8.30;;;;;;;1.83;80.77;99392.21;112538;1190;74634;-22
2021/10/15 05:12:35;;;;;;;14.30;8.30;;;;;;;2.46;78.45;99399.09;112248;1192;73015;-22
2021/10/15 05:15:09;;;;;;;16.20;8.60;;;;;;;2.48;78.06;99402.08;112511;1190;60754;-22
2021/10/15 05:17:53;;;;;;;8.20;5.30;;;;;;;2.32;78.23;99401.71;112344;1193;61026;-22
2021/10/15 05:20:22;;;;;;;13.00;7.20;;;;;;;2.10;79.31;99401.60;112398;1192;75749;-22
2021/10/15 05:22:51;;;;;;;11.40;8.00;;;;;;;1.99;80.01;99402.91;112531;1190;75466;-22
2021/10/15 05:25:19;;;;;;;11.20;6.60;;;;;;;2.48;78.91;99401.05;112449;1192;74130;-22
2021/10/15 05:27:48;;;;;;;12.30;7.80;;;;;;;2.76;77.68;99403.11;112534;1190;61280;-22
2021/10/15 05:30:16;;;;;;;10.00;6.60;;;;;;;2.71;77.61;99401.46;112511;1190;60766;-22
2021/10/15 05:32:45;;;;;;;14.20;10.50;;;;;;;2.54;78.21;99397.56;112510;1190;75118;-22
2021/10/15 05:35:13;;;;;;;11.50;6.80;;;;;;;2.30;78.87;99396.69;112388;1190;75758;-22
2021/10/15 05:37:42;;;;;;;13.40;8.20;;;;;;;2.10;80.27;99393.55;112509;1190;73565;-22
2021/10/15 05:40:11;;;;;;;11.80;7.40;;;;;;;2.55;79.59;99393.73;112555;1190;60836;-22
2021/10/15 05:42:49;;;;;;;18.40;11.60;;;;;;;2.91;77.88;99399.06;112312;1192;61714;-22
2021/10/15 05:45:17;;;;;;;14.10;8.40;;;;;;;2.96;77.72;99396.42;112365;1190;74214;-22
2021/10/15 05:47:46;;;;;;;14.80;8.50;;;;;;;2.78;78.42;99398.38;112407;1190;73978;-22
2021/10/15 05:50:16;;;;;;;10.40;6.90;;;;;;;2.60;79.32;99394.55;112445;1190;72756;-22
2021/10/15 05:52:47;;;;;;;8.20;5.70;;;;;;;2.44;79.96;99395.21;112476;1190;61526;-22
2021/10/15 06:00:25;;;;;;;9.80;6.30;;;;;;;3.22;77.92;99404.88;112535;1190;75678;-23
2021/10/15 06:02:54;;;;;;;14.40;9.80;;;;;;;2.94;78.72;99407.14;112501;1177;72996;-22
2021/10/15 06:16:23;;;;;;;13.50;8.60;;;;;;;3.41;78.21;99400.08;112442;1192;73090;-22
2021/10/15 06:18:56;;;;;;;12.50;6.50;;;;;;;3.28;79.37;99396.02;112499;1190;61689;-21
2021/10/15 06:21:28;;;;;;;10.90;6.40;;;;;;;3.39;79.72;99397.78;112509;1190;60811;-23
2021/10/15 06:23:56;;;;;;;12.60;8.30;;;;;;;3.91;78.15;99398.08;112417;1192;73827;-22
2021/10/15 06:26:25;;;;;;;15.30;9.70;;;;;;;4.15;77.23;99396.92;112532;1190;75642;-22
2021/10/15 06:28:53;;;;;;;12.40;7.00;;;;;;;4.06;77.55;99400.08;112362;1192;73176;-22
2021/10/15 06:31:22;;;;;;;13.30;9.10;;;;;;;3.92;78.33;99398.55;112485;1190;60806;-23
2021/10/15 06:33:50;;;;;;;15.60;8.00;;;;;;;3.92;78.76;99396.67;112559;1190;61508;-23
2021/10/15 06:36:19;;;;;;;15.50;9.60;;;;;;;4.47;77.47;99395.70;112443;1190;74935;-23
2021/10/15 06:38:47;;;;;;;9.70;6.10;;;;;;;4.82;75.61;99393.20;112519;1190;74716;-22
2021/10/15 06:41:16;;;;;;;10.70;7.20;;;;;;;4.87;75.89;99394.88;112458;1190;72885;-22
2021/10/15 06:43:44;;;;;;;12.80;8.70;;;;;;;4.88;75.51;99392.40;112438;1190;60851;-24
2021/10/15 06:46:13;;;;;;;15.70;6.50;;;;;;;4.84;75.52;99389.50;112475;1190;60838;-22
2021/10/15 06:48:41;;;;;;;11.60;6.80;;;;;;;4.88;75.69;99396.00;112525;1190;75303;-22
2021/10/15 06:51:10;;;;;;;12.70;8.40;;;;;;;5.44;74.45;99395.09;112462;1190;75635;-23
2021/10/15 06:53:39;;;;;;;16.50;8.60;;;;;;;5.77;72.72;99393.95;112457;1192;72549;-22
2021/10/15 06:56:07;;;;;;;16.10;9.10;;;;;;;5.68;72.87;99393.99;112234;1192;60861;-22
2021/10/15 06:58:35;;;;;;;17.40;10.80;;;;;;;5.79;73.00;99400.22;112487;1190;62210;-22
2021/10/15 07:01:04;;;;;;;16.40;10.80;;;;;;;5.89;73.03;99406.41;112484;1190;75108;-22
2021/10/15 07:03:32;;;;;;;15.20;9.10;;;;;;;5.94;73.47;99406.15;112497;1190;75727;-22
2021/10/15 07:06:01;;;;;;;15.00;8.40;;;;;;;6.06;73.20;99407.05;112523;1190;73458;-22
2021/10/15 07:08:30;;;;;;;12.90;8.10;;;;;;;6.67;71.22;99409.77;112530;1190;60805;-22
2021/10/15 07:10:58;;;;;;;15.70;7.60;;;;;;;7.23;69.83;99410.02;112495;1190;61942;-23
2021/10/15 07:13:27;;;;;;;16.10;9.30;;;;;;;7.31;68.59;99407.45;112287;1192;75464;-22
2021/10/15 07:15:55;;;;;;;12.30;7.50;;;;;;;7.28;69.01;99406.73;112474;1190;74915;-23
2021/10/15 07:18:24;;;;;;;14.40;8.00;;;;;;;7.18;68.97;99408.94;112506;1190;74008;-23
2021/10/15 07:20:52;;;;;;;14.30;7.20;;;;;;;7.04;69.36;99409.80;112454;1190;61181;-23
2021/10/15 07:23:20;;;;;;;14.40;8.80;;;;;;;6.95;69.40;99404.77;112486;1190;61479;-23
2021/10/15 07:25:49;;;;;;;9.30;6.00;;;;;;;6.95;69.56;99404.80;112521;1190;74480;-22
2021/10/15 07:28:17;;;;;;;7.80;5.40;;;;;;;6.88;69.69;99398.83;112436;1192;74773;-23
2021/10/15 07:30:47;;;;;;;11.90;8.00;;;;;;;6.88;70.30;99400.72;112320;1192;74149;-22
2021/10/15 07:33:16;;;;;;;14.80;7.80;;;;;;;7.25;69.34;99397.44;112522;1190;61934;-22
2021/10/15 07:35:44;;;;;;;11.10;7.90;;;;;;;7.97;67.47;99393.09;112454;1190;60950;-21
2021/10/15 07:38:12;;;;;;;14.00;8.30;;;;;;;8.31;66.52;99387.59;112527;1183;75214;-24
2021/10/15 07:40:41;;;;;;;9.80;6.30;;;;;;;8.41;65.26;99392.30;112544;1190;74679;-21
2021/10/15 07:43:10;;;;;;;14.70;8.80;;;;;;;8.35;65.78;99390.64;112529;1190;73851;-23
2021/10/15 07:45:39;;;;;;;7.10;4.70;;;;;;;8.39;66.28;99387.95;112473;1190;61564;-22
2021/10/15 07:48:07;;;;;;;10.40;6.50;;;;;;;8.42;66.20;99387.56;112529;1190;60832;-21
2021/10/15 07:50:35;;;;;;;9.80;5.80;;;;;;;8.43;65.27;99383.86;112510;1190;75158;-23
2021/10/15 07:53:03;;;;;;;14.00;7.90;;;;;;;8.33;65.36;99381.21;112494;1190;75790;-23
2021/10/15 07:55:32;;;;;;;11.70;8.00;;;;;;;8.46;65.20;99381.05;112425;1191;73730;-19
2021/10/15 07:58:10;;;;;;;11.10;7.20;;;;;;;8.68;64.80;99379.95;112453;1191;60805;-23
2021/10/15 08:00:38;;;;;;;9.90;6.20;;;;;;;8.72;64.18;99383.88;112487;1190;60825;-26
2021/10/15 08:03:07;;;;;;;15.50;8.40;;;;;;;8.82;63.95;99382.87;112533;1190;74919;-27
2021/10/15 08:05:37;;;;;;;9.30;6.10;;;;;;;8.93;63.70;99382.73;112498;1190;73887;-24
2021/10/15 08:08:06;;;;;;;12.80;5.80;;;;;;;9.05;63.35;99379.13;112491;1190;73236;-22
2021/10/15 08:10:35;;;;;;;9.20;6.90;;;;;;;9.24;62.01;99381.15;112537;1190;62012;-24
2021/10/15 08:13:03;;;;;;;12.50;7.10;;;;;;;9.29;62.02;99380.59;112539;1190;60809;-24
2021/10/15 08:15:32;;;;;;;13.10;7.00;;;;;;;9.49;62.14;99383.52;112500;1190;75203;-24
2021/10/15 08:18:00;;;;;;;14.40;6.20;;;;;;;9.77;61.27;99377.06;112486;1190;74651;-25
2021/10/15 08:20:29;;;;;;;11.70;7.00;;;;;;;9.95;60.69;99375.73;112468;1190;73878;-23
2021/10/15 08:22:58;;;;;;;8.00;5.30;;;;;;;10.14;60.59;99376.93;112496;1190;60793;-25
2021/10/15 08:25:26;;;;;;;10.90;6.70;;;;;;;10.30;59.46;99371.27;112518;1190;60822;-24
2021/10/15 08:27:56;;;;;;;5.50;3.70;;;;;;;10.42;58.79;99372.65;112530;1190;75141;-24
2021/10/15 08:30:25;;;;;;;15.00;7.30;;;;;;;10.31;58.41;99373.06;112378;1190;74406;-23
2021/10/15 08:32:53;;;;;;;13.10;5.20;;;;;;;10.29;58.24;99370.98;112439;1190;73769;-22
2021/10/15 08:35:22;;;;;;;7.30;4.90;;;;;;;10.19;58.53;99373.48;112458;1190;61593;-22
2021/10/15 08:37:52;;;;;;;10.70;5.90;;;;;;;10.31;57.90;99372.05;112521;1190;60820;-22
2021/10/15 08:40:21;;;;;;;6.40;4.50;;;;;;;10.58;56.77;99372.86;112543;1190;74232;-22
2021/10/15 08:42:51;;;;;;;7.00;5.20;;;;;;;10.66;57.31;99373.75;112293;1190;74586;-21
2021/10/15 08:45:24;;;;;;;6.50;4.40;;;;;;;10.77;56.72;99371.23;112450;1183;73125;-21
2021/10/15 08:47:53;;;;;;;12.40;5.90;;;;;;;10.70;56.18;99366.38;112220;1194;60839;-21
2021/10/15 08:50:43;;;;;;;8.40;5.40;;;;;;;10.94;56.30;99369.73;112480;1190;60800;-21
2021/10/15 08:53:11;;;;;;;9.20;5.20;;;;;;;11.22;55.02;99369.28;112205;1193;73852;-22
2021/10/15 08:55:41;;;;;;;12.80;6.00;;;;;;;11.53;54.65;99367.58;112493;1190;75649;-21
2021/10/15 08:58:09;;;;;;;11.10;5.30;;;;;;;11.73;53.40;99364.25;112395;1174;73799;-21
2021/10/15 09:00:38;;;;;;;13.30;4.80;;;;;;;11.83;53.50;99364.95;112309;1192;60827;-23
2021/10/15 09:03:23;;;;;;;9.00;4.90;;;;;;;12.09;52.89;99363.77;112338;1192;60891;-21
2021/10/15 09:05:58;;;;;;;10.30;5.20;;;;;;;12.10;51.38;99365.11;112252;1192;74249;-21
2021/10/15 09:08:42;;;;;;;7.40;4.90;;;;;;;12.29;51.72;99362.25;112277;1191;75843;-24
2021/10/15 09:11:46;;;;;;;7.90;3.90;;;;;;;12.43;50.62;99363.90;112243;1192;73741;-21
2021/10/15 09:14:17;;;;;;;9.50;5.90;;;;;;;12.35;50.37;99358.45;112267;1190;60839;-24
2021/10/15 09:17:12;;;;;;;7.40;4.10;;;;;;;12.53;50.54;99357.45;112346;1190;60851;-23
2021/10/15 09:19:48;;;;;;;10.80;8.10;;;;;;;12.69;48.16;99352.30;112295;1190;74979;-23
2021/10/15 09:22:31;;;;;;;8.30;4.20;;;;;;;12.76;48.78;99350.88;112282;1192;75788;-24
2021/10/15 09:25:11;;;;;;;10.50;4.70;;;;;;;12.81;48.02;99350.07;112272;1192;73814;-23
2021/10/15 09:27:43;;;;;;;7.00;4.10;;;;;;;12.96;47.91;99346.19;112271;1192;60902;-22
2021/10/15 09:30:19;;;;;;;9.40;5.00;;;;;;;13.26;47.30;99344.27;112314;1191;61701;-22
2021/10/15 09:32:49;;;;;;;3.00;2.60;;;;;;;13.45;46.76;99343.03;112237;1191;74124;-22
2021/10/15 09:35:27;;;;;;;9.40;5.30;;;;;;;13.33;46.20;99341.23;112475;1190;75680;-22
2021/10/15 09:38:01;;;;;;;4.20;2.70;;;;;;;13.54;46.34;99345.48;112251;1192;74364;-22
2021/10/15 09:40:31;;;;;;;9.70;5.20;;;;;;;13.47;45.00;99345.42;112283;1190;60837;-22
2021/10/15 09:43:03;;;;;;;5.60;2.60;;;;;;;13.47;45.05;99344.95;112216;1190;62486;-22
2021/10/15 09:45:38;;;;;;;9.50;4.30;;;;;;;13.30;45.10;99342.20;112397;1191;73330;-22
2021/10/15 09:48:36;;;;;;;4.60;3.00;;;;;;;13.39;44.88;99342.48;112239;1190;75665;-22
2021/10/15 09:51:09;;;;;;;6.90;3.50;;;;;;;13.36;43.79;99328.42;112225;1190;72632;-22
2021/10/15 09:53:41;;;;;;;6.30;2.40;;;;;;;13.39;43.23;99334.10;112426;1190;60764;-22
2021/10/15 09:56:09;;;;;;;4.80;2.80;;;;;;;13.40;43.86;99336.41;112223;1193;61443;-22
2021/10/15 09:58:53;;;;;;;6.30;3.60;;;;;;;13.42;43.92;99329.70;112464;1190;75187;-22
2021/10/15 10:01:21;;;;;;;5.40;3.70;;;;;;;13.38;44.02;99333.64;112243;1192;75755;-22
2021/10/15 10:03:50;;;;;;;8.30;3.10;;;;;;;13.56;44.27;99326.53;112241;1190;73988;-23
2021/10/15 10:06:18;;;;;;;5.30;2.40;;;;;;;13.88;43.46;99326.30;112271;1190;61544;-22
2021/10/15 10:08:47;;;;;;;7.40;3.60;;;;;;;13.64;42.07;99314.78;112278;1190;60794;-22
2021/10/15 10:11:16;;;;;;;8.80;3.10;;;;;;;13.70;42.83;99315.83;112275;1193;73621;-22
2021/10/15 10:13:44;;;;;;;6.00;4.00;;;;;;;13.61;42.04;99315.61;112509;1190;75626;-22
2021/10/15 10:16:15;;;;;;;13.60;7.80;;;;;;;13.58;42.75;99314.65;112447;1192;73005;-23
2021/10/15 10:18:44;;;;;;;6.70;3.50;;;;;;;13.48;42.50;99314.64;112169;1191;61607;-22
2021/10/15 10:21:21;;;;;;;7.70;4.80;;;;;;;13.55;42.22;99309.81;112256;1190;60858;-22
2021/10/15 10:23:59;;;;;;;6.10;3.10;;;;;;;13.46;41.83;99309.76;112269;1190;75198;-22
2021/10/15 10:26:28;;;;;;;3.70;2.30;;;;;;;13.53;41.71;99304.61;112233;1192;74445;-22
2021/10/15 10:29:06;;;;;;;3.70;2.70;;;;;;;13.39;41.93;99299.91;112455;1190;73546;-22
2021/10/15 10:31:35;;;;;;;3.70;2.30;;;;;;;13.44;41.79;99300.04;112226;1192;61030;-22
2021/10/15 10:34:09;;;;;;;6.00;3.40;;;;;;;13.42;42.45;99293.91;112574;1190;60933;-22
2021/10/15 10:36:38;;;;;;;2.20;1.60;;;;;;;13.79;41.65;99294.08;112207;1190;74998;-22
2021/10/15 10:39:19;;;;;;;3.90;2.40;;;;;;;14.04;41.08;99291.86;112245;1192;74811;-22
2021/10/15 10:42:03;;;;;;;4.30;2.90;;;;;;;14.23;40.82;99297.25;112289;1191;73171;-22
2021/10/15 10:44:35;;;;;;;2.30;1.90;;;;;;;14.21;40.35;99292.91;112469;1192;60802;-22
2021/10/15 10:47:16;;;;;;;4.00;2.70;;;;;;;14.19;40.28;99286.95;112500;1190;60831;-22
2021/10/15 10:50:06;;;;;;;5.60;3.10;;;;;;;14.28;40.74;99291.86;112344;1192;74571;-22
2021/10/15 10:52:39;;;;;;;5.10;2.80;;;;;;;14.41;40.13;99292.98;112305;1193;75834;-22
2021/10/15 10:55:07;;;;;;;4.60;2.60;;;;;;;14.41;39.57;99295.61;112245;1190;73079;-22
2021/10/15 10:57:40;;;;;;;3.90;2.50;;;;;;;14.29;39.28;99290.11;112548;1192;60803;-22
2021/10/15 11:00:22;;;;;;;4.50;2.30;;;;;;;14.33;40.41;99283.41;112179;1190;60935;-22
2021/10/15 11:02:55;;;;;;;4.70;3.00;;;;;;;14.38;38.87;99278.73;112278;1190;75236;-22
2021/10/15 11:05:41;;;;;;;4.20;3.10;;;;;;;14.46;39.66;99275.61;112225;1192;74950;-22
2021/10/15 11:08:25;;;;;;;2.60;2.20;;;;;;;14.56;39.15;99272.55;112476;1191;74099;-22
2021/10/15 11:11:19;;;;;;;9.90;4.90;;;;;;;14.26;40.28;99274.41;112235;1192;61399;-23
2021/10/15 11:13:47;;;;;;;4.60;2.10;;;;;;;14.29;40.32;99270.91;112456;1191;61464;-24
2021/10/15 11:16:23;;;;;;;4.20;3.00;;;;;;;14.43;39.42;99263.40;112508;1190;74756;-23
2021/10/15 11:18:52;;;;;;;3.80;3.00;;;;;;;14.47;39.39;99272.65;112292;1192;74246;-23
2021/10/15 11:21:21;;;;;;;3.50;2.90;;;;;;;14.51;39.35;99268.70;112260;1191;71588;-23
2021/10/15 11:23:52;;;;;;;5.60;2.50;;;;;;;14.47;38.66;99266.42;112541;1193;61760;-22
2021/10/15 11:26:33;;;;;;;4.50;2.90;;;;;;;14.51;38.59;99268.97;112513;1190;61850;-22
2021/10/15 11:29:08;;;;;;;6.40;3.00;;;;;;;14.49;38.90;99260.14;112243;1191;75229;-22
2021/10/15 11:31:36;;;;;;;6.00;2.40;;;;;;;14.51;39.74;99263.09;112502;1190;74646;-22
2021/10/15 11:34:11;;;;;;;2.70;2.20;;;;;;;14.50;39.11;99259.33;112276;1176;73060;-22
2021/10/15 11:36:41;;;;;;;3.40;2.40;;;;;;;14.44;38.38;99249.35;112446;1193;62060;-22
2021/10/15 11:39:10;;;;;;;4.80;3.10;;;;;;;14.14;38.83;99250.29;112542;1190;62123;-22
2021/10/15 11:41:51;;;;;;;5.20;3.10;;;;;;;14.05;39.19;99253.38;112494;1190;74966;-22
2021/10/15 11:44:35;;;;;;;3.90;3.00;;;;;;;14.14;38.64;99242.52;112428;1190;74755;-22
2021/10/15 11:47:03;;;;;;;4.10;2.60;;;;;;;14.07;38.47;99237.77;112130;1193;74190;-22
2021/10/15 11:49:36;;;;;;;4.50;2.80;;;;;;;13.95;38.95;99238.75;112215;1192;60864;-22
2021/10/15 11:52:05;;;;;;;3.80;2.90;;;;;;;13.90;39.13;99236.77;112119;1192;60810;-24
2021/10/15 11:54:34;;;;;;;4.30;2.60;;;;;;;13.90;39.31;99239.02;112553;1190;75706;-22
2021/10/15 11:57:05;;;;;;;2.80;2.30;;;;;;;14.00;38.74;99229.20;112375;1190;74454;-22
2021/10/15 11:59:34;;;;;;;5.50;3.00;;;;;;;13.97;38.45;99230.73;112274;1192;72976;-22